createdAt,value
2023-05-14T00:00:52.343Z,11.00
2023-05-14T00:03:19.178Z,10.90
2023-05-14T00:05:45.846Z,11.70
2023-05-14T00:08:12.474Z,11.52
2023-05-14T00:10:39.069Z,11.55
2023-05-14T00:13:05.791Z,11.68
2023-05-14T00:15:34.197Z,11.85
2023-05-14T00:18:01.266Z,10.70
2023-05-14T00:20:27.962Z,11.80
2023-05-14T00:22:54.576Z,11.43
2023-05-14T00:25:21.168Z,11.30
2023-05-14T00:27:47.734Z,11.50
2023-05-14T00:30:14.396Z,11.57
2023-05-14T00:32:41.040Z,11.05
2023-05-14T00:35:07.958Z,11.10
2023-05-14T00:37:34.764Z,11.52
2023-05-14T00:40:01.853Z,10.80
2023-05-14T00:42:29.670Z,11.57
2023-05-14T00:44:59.458Z,11.38
2023-05-14T00:47:33.952Z,12.93
2023-05-14T00:50:07.092Z,11.60
2023-05-14T00:52:42.236Z,12.20
2023-05-14T00:55:11.957Z,11.60
2023-05-14T00:57:39.207Z,11.70
2023-05-14T01:00:08.504Z,12.48
2023-05-14T01:02:35.417Z,12.65
2023-05-14T01:05:03.028Z,12.45
2023-05-14T01:07:42.213Z,12.63
2023-05-14T01:10:17.481Z,13.00
2023-05-14T01:13:07.269Z,12.57
2023-05-14T01:15:36.312Z,12.35
2023-05-14T01:18:09.994Z,13.60
2023-05-14T01:20:36.830Z,12.85
2023-05-14T01:23:04.031Z,13.23
2023-05-14T01:25:31.764Z,13.10
2023-05-14T01:28:09.172Z,13.55
2023-05-14T01:31:28.346Z,13.95
2023-05-14T01:34:01.627Z,13.82
2023-05-14T01:36:29.999Z,14.55
2023-05-14T01:38:57.614Z,13.55
2023-05-14T01:41:26.911Z,13.35
2023-05-14T01:43:53.920Z,13.63
2023-05-14T01:46:20.815Z,13.77
2023-05-14T01:48:50.445Z,14.73
2023-05-14T01:51:17.653Z,13.80
2023-05-14T01:53:44.324Z,13.27
2023-05-14T01:56:11.060Z,13.60
2023-05-14T01:58:45.879Z,13.55
2023-05-14T02:01:12.541Z,14.27
2023-05-14T02:03:39.395Z,13.27
2023-05-14T02:06:06.212Z,14.43
2023-05-14T02:08:32.824Z,14.05
2023-05-14T02:10:59.572Z,13.27
2023-05-14T02:13:26.927Z,13.52
2023-05-14T02:15:58.807Z,13.23
2023-05-14T02:18:25.702Z,14.40
2023-05-14T02:20:53.136Z,13.43
2023-05-14T02:23:40.901Z,13.50
2023-05-14T02:26:10.275Z,13.65
2023-05-14T02:28:36.965Z,13.60
2023-05-14T02:31:03.723Z,13.55
2023-05-14T02:33:37.881Z,13.68
2023-05-14T02:36:04.597Z,14.52
2023-05-14T02:38:31.937Z,13.90
2023-05-14T02:40:58.557Z,14.15
2023-05-14T02:43:25.302Z,13.98
2023-05-14T02:46:04.675Z,14.40
2023-05-14T02:48:31.922Z,13.73
2023-05-14T02:50:58.772Z,14.10
2023-05-14T02:53:49.138Z,13.85
2023-05-14T02:56:18.383Z,13.57
2023-05-14T02:58:45.316Z,12.60
2023-05-14T03:01:21.377Z,13.35
2023-05-14T03:04:16.375Z,13.02
2023-05-14T03:06:46.447Z,13.65
2023-05-14T03:09:18.790Z,12.98
2023-05-14T03:14:26.326Z,12.80
2023-05-14T03:16:58.305Z,13.15
2023-05-14T03:19:32.541Z,13.02
2023-05-14T03:22:07.298Z,12.57
2023-05-14T03:24:34.836Z,12.68
2023-05-14T03:27:01.560Z,12.18
2023-05-14T03:29:28.626Z,12.73
2023-05-14T03:35:19.387Z,12.10
2023-05-14T03:37:59.720Z,11.75
2023-05-14T03:40:39.743Z,10.20
2023-05-14T03:43:12.442Z,10.50
2023-05-14T03:45:47.502Z,9.45
2023-05-14T03:48:15.265Z,8.90
2023-05-14T03:50:45.209Z,8.40
2023-05-14T03:53:24.163Z,8.32
2023-05-14T03:55:51.134Z,8.88
2023-05-14T03:58:21.576Z,7.97
2023-05-14T04:01:00.717Z,9.02
2023-05-14T04:03:30.627Z,8.30
2023-05-14T04:06:03.881Z,8.20
2023-05-14T04:08:31.076Z,8.45
2023-05-14T04:11:05.910Z,8.40
2023-05-14T04:13:32.526Z,8.63
2023-05-14T04:15:59.296Z,7.68
2023-05-14T04:18:43.838Z,7.63
2023-05-14T04:21:11.050Z,8.25
2023-05-14T04:23:44.036Z,8.60
2023-05-14T04:26:13.768Z,7.15
2023-05-14T04:28:40.641Z,8.15
2023-05-14T04:31:07.768Z,8.25
2023-05-14T04:33:38.178Z,8.35
2023-05-14T04:36:05.769Z,8.70
2023-05-14T04:38:43.490Z,7.60
2023-05-14T04:41:17.225Z,8.50
2023-05-14T04:43:43.840Z,8.40
2023-05-14T04:46:10.884Z,7.65
2023-05-14T04:48:52.675Z,8.40
2023-05-14T04:51:19.391Z,8.63
2023-05-14T04:53:46.567Z,8.07
2023-05-14T04:56:13.181Z,7.95
2023-05-14T04:58:40.303Z,7.50
2023-05-14T05:01:10.502Z,8.32
2023-05-14T05:03:37.393Z,7.72
2023-05-14T05:06:04.553Z,7.20
2023-05-14T05:08:31.276Z,7.32
2023-05-14T05:10:57.954Z,7.68
2023-05-14T05:13:24.667Z,7.63
2023-05-14T05:15:51.348Z,7.82
2023-05-14T05:18:17.972Z,7.75
2023-05-14T05:20:45.094Z,7.00
2023-05-14T05:23:12.012Z,7.05
2023-05-14T05:25:38.775Z,7.85
2023-05-14T05:28:05.795Z,7.50
2023-05-14T05:30:32.609Z,7.05
2023-05-14T05:32:59.496Z,7.28
2023-05-14T05:35:28.918Z,6.85
2023-05-14T05:37:56.012Z,6.63
2023-05-14T05:40:25.666Z,6.78
2023-05-14T05:42:52.753Z,6.50
2023-05-14T05:45:19.782Z,6.72
2023-05-14T05:47:46.703Z,6.75
2023-05-14T05:50:13.797Z,7.28
2023-05-14T05:52:41.178Z,7.15
2023-05-14T05:55:08.236Z,7.25
2023-05-14T05:57:34.865Z,7.18
2023-05-14T06:00:06.518Z,6.63
2023-05-14T06:02:33.338Z,6.80
2023-05-14T06:05:00.139Z,7.40
2023-05-14T06:07:26.781Z,6.80
2023-05-14T06:09:53.562Z,6.15
2023-05-14T06:12:20.808Z,6.53
2023-05-14T06:14:48.120Z,7.25
2023-05-14T06:17:14.972Z,6.72
2023-05-14T06:19:41.853Z,6.95
2023-05-14T06:22:08.456Z,6.60
2023-05-14T06:24:35.544Z,6.90
2023-05-14T06:27:02.167Z,6.63
2023-05-14T06:29:28.842Z,6.38
2023-05-14T06:32:03.827Z,6.30
2023-05-14T06:34:34.723Z,5.90
2023-05-14T06:37:04.259Z,6.35
2023-05-14T06:39:33.867Z,6.28
2023-05-14T06:42:01.031Z,6.72
2023-05-14T06:44:27.937Z,6.10
2023-05-14T06:46:54.744Z,5.82
2023-05-14T06:49:21.587Z,6.05
2023-05-14T06:51:48.432Z,6.07
2023-05-14T06:54:15.327Z,6.43
2023-05-14T06:56:44.519Z,6.05
2023-05-14T06:59:11.425Z,6.55
2023-05-14T07:01:38.418Z,6.45
2023-05-14T07:04:08.092Z,5.80
2023-05-14T07:06:37.669Z,6.15
2023-05-14T07:09:04.429Z,6.43
2023-05-14T07:11:31.176Z,5.75
2023-05-14T07:13:57.866Z,5.63
2023-05-14T07:16:24.546Z,6.05
2023-05-14T07:18:56.682Z,5.72
2023-05-14T07:21:23.326Z,5.57
2023-05-14T07:23:52.411Z,6.53
2023-05-14T07:26:19.171Z,6.63
2023-05-14T07:28:46.324Z,6.03
2023-05-14T07:31:13.128Z,5.70
2023-05-14T07:33:40.212Z,5.32
2023-05-14T07:36:07.518Z,5.40
2023-05-14T07:38:34.705Z,5.38
2023-05-14T07:41:01.413Z,5.22
2023-05-14T07:43:28.224Z,4.80
2023-05-14T07:45:58.163Z,5.43
2023-05-14T07:48:25.125Z,5.53
2023-05-14T07:50:52.079Z,4.75
2023-05-14T07:53:19.061Z,5.30
2023-05-14T07:55:48.153Z,4.90
2023-05-14T07:58:14.981Z,4.57
2023-05-14T08:00:41.725Z,4.60
2023-05-14T08:03:11.211Z,4.55
2023-05-14T08:05:38.064Z,4.65
2023-05-14T08:08:04.970Z,4.75
2023-05-14T08:10:31.776Z,4.70
2023-05-14T08:12:58.432Z,4.10
2023-05-14T08:15:27.562Z,4.75
2023-05-14T08:17:54.645Z,4.95
2023-05-14T08:20:21.343Z,4.50
2023-05-14T08:22:48.119Z,4.63
2023-05-14T08:25:14.894Z,4.65
2023-05-14T08:27:41.699Z,4.55
2023-05-14T08:30:08.810Z,4.03
2023-05-14T08:32:36.008Z,4.85
2023-05-14T08:35:02.882Z,5.05
2023-05-14T08:37:29.593Z,4.40
2023-05-14T08:39:56.578Z,4.32
2023-05-14T08:42:24.823Z,4.68
2023-05-14T08:45:02.210Z,4.30
2023-05-14T08:47:30.783Z,4.68
2023-05-14T08:50:08.328Z,3.75
2023-05-14T08:52:35.306Z,4.07
2023-05-14T08:55:06.933Z,4.10
2023-05-14T08:57:34.661Z,4.32
2023-05-14T09:00:06.080Z,4.22
2023-05-14T09:02:33.231Z,4.57
2023-05-14T09:05:01.584Z,4.15
2023-05-14T09:07:28.955Z,4.38
2023-05-14T09:09:56.067Z,3.85
2023-05-14T09:12:23.183Z,3.83
2023-05-14T09:14:50.993Z,3.60
2023-05-14T09:17:18.511Z,3.90
2023-05-14T09:19:53.105Z,3.60
2023-05-14T09:22:21.198Z,3.42
2023-05-14T09:25:02.806Z,3.10
2023-05-14T09:27:31.828Z,3.55
2023-05-14T09:30:14.113Z,3.35
2023-05-14T09:32:46.254Z,3.75
2023-05-14T09:35:23.987Z,3.40
2023-05-14T09:37:52.976Z,4.28
2023-05-14T09:40:21.665Z,3.58
2023-05-14T09:42:49.347Z,3.22
2023-05-14T09:45:16.858Z,3.65
2023-05-14T09:47:45.340Z,3.40
2023-05-14T09:50:12.607Z,4.03
2023-05-14T09:52:39.609Z,3.72
2023-05-14T09:55:07.120Z,3.55
2023-05-14T09:57:34.678Z,3.92
2023-05-14T10:00:01.499Z,4.00
2023-05-14T10:02:37.633Z,3.70
2023-05-14T10:05:06.499Z,3.55
2023-05-14T10:07:47.815Z,3.42
2023-05-14T10:10:18.618Z,3.55
2023-05-14T10:13:07.709Z,3.57
2023-05-14T10:15:41.688Z,3.60
2023-05-14T10:18:16.633Z,3.63
2023-05-14T10:20:44.202Z,4.13
2023-05-14T10:23:11.405Z,3.50
2023-05-14T10:25:38.423Z,3.60
2023-05-14T10:28:06.249Z,3.50
2023-05-14T10:30:33.077Z,3.60
2023-05-14T10:33:11.375Z,3.53
2023-05-14T10:36:07.116Z,3.50
2023-05-14T10:38:35.463Z,3.90
2023-05-14T10:41:10.054Z,3.80
2023-05-14T10:43:39.041Z,3.63
2023-05-14T10:46:07.575Z,4.40
2023-05-14T10:48:35.173Z,3.83
2023-05-14T10:51:02.839Z,3.92
2023-05-14T10:54:00.081Z,3.33
2023-05-14T10:56:42.740Z,3.55
2023-05-14T10:59:11.278Z,3.45
2023-05-14T11:01:44.065Z,3.50
2023-05-14T11:04:19.267Z,3.65
2023-05-14T11:06:49.476Z,3.83
2023-05-14T11:09:17.757Z,3.58
2023-05-14T11:11:44.363Z,3.20
2023-05-14T11:14:10.977Z,3.78
2023-05-14T11:16:37.979Z,4.03
2023-05-14T11:19:05.062Z,3.60
2023-05-14T11:21:32.891Z,3.75
2023-05-14T11:24:00.911Z,3.40
2023-05-14T11:26:27.579Z,3.67
2023-05-14T11:28:54.353Z,3.65
2023-05-14T11:31:22.271Z,4.15
2023-05-14T11:33:48.936Z,3.55
2023-05-14T11:36:15.540Z,3.80
2023-05-14T11:38:50.616Z,3.47
2023-05-14T11:41:17.236Z,3.55
2023-05-14T11:43:44.065Z,3.40
2023-05-14T11:46:18.293Z,3.58
2023-05-14T11:48:45.625Z,3.05
2023-05-14T11:51:12.789Z,3.90
2023-05-14T11:53:39.429Z,3.85
2023-05-14T11:56:21.888Z,3.42
2023-05-14T11:58:49.423Z,3.78
2023-05-14T12:01:16.046Z,3.53
2023-05-14T12:03:42.866Z,3.53
2023-05-14T12:06:09.702Z,3.53
2023-05-14T12:08:37.705Z,3.60
2023-05-14T12:11:04.337Z,3.88
2023-05-14T12:13:31.718Z,4.30
2023-05-14T12:16:00.444Z,3.92
2023-05-14T12:18:29.165Z,4.53
2023-05-14T12:20:56.414Z,3.90
2023-05-14T12:23:32.721Z,5.15
2023-05-14T12:26:08.436Z,3.67
2023-05-14T12:28:38.423Z,3.72
2023-05-14T12:31:05.904Z,3.65
2023-05-14T12:33:32.826Z,3.70
2023-05-14T12:36:13.523Z,3.42
2023-05-14T12:38:47.753Z,3.85
2023-05-14T12:41:18.297Z,3.35
2023-05-14T12:43:45.403Z,3.58
2023-05-14T12:46:12.460Z,3.75
2023-05-14T12:48:39.156Z,6.13
2023-05-14T12:51:06.657Z,3.20
2023-05-14T12:53:35.027Z,3.75
2023-05-14T12:56:03.984Z,3.38
2023-05-14T12:58:30.708Z,3.25
2023-05-14T13:00:59.718Z,3.10
2023-05-14T13:03:29.667Z,3.30
2023-05-14T13:05:56.566Z,3.30
2023-05-14T13:08:25.305Z,3.17
2023-05-14T13:10:53.026Z,3.28
2023-05-14T13:13:20.171Z,3.60
2023-05-14T13:15:47.016Z,2.90
2023-05-14T13:18:14.469Z,3.25
2023-05-14T13:20:43.115Z,3.28
2023-05-14T13:23:10.097Z,3.28
2023-05-14T13:25:36.684Z,3.17
2023-05-14T13:28:03.262Z,3.53
2023-05-14T13:30:32.497Z,3.50
2023-05-14T13:33:00.079Z,3.00
2023-05-14T13:35:26.971Z,3.20
2023-05-14T13:37:53.635Z,3.03
2023-05-14T13:40:20.500Z,4.38
2023-05-14T13:42:48.539Z,3.22
2023-05-14T13:45:15.347Z,4.28
2023-05-14T13:47:42.271Z,3.42
2023-05-14T13:50:09.315Z,5.47
2023-05-14T13:52:36.419Z,3.58
2023-05-14T13:55:03.554Z,3.30
2023-05-14T13:57:30.402Z,3.50
2023-05-14T13:59:57.309Z,3.95
2023-05-14T14:02:24.117Z,3.75
2023-05-14T14:04:50.849Z,3.38
2023-05-14T14:07:17.609Z,3.63
2023-05-14T14:09:45.162Z,3.42
2023-05-14T14:12:11.948Z,3.83
2023-05-14T14:14:38.937Z,4.35
2023-05-14T14:17:05.570Z,3.47
2023-05-14T14:19:32.158Z,4.22
2023-05-14T14:21:58.781Z,3.60
2023-05-14T14:24:25.531Z,3.70
2023-05-14T14:26:52.231Z,3.85
2023-05-14T14:29:18.994Z,3.30
2023-05-14T14:31:45.919Z,3.78
2023-05-14T14:34:12.687Z,3.70
2023-05-14T14:36:39.327Z,3.42
2023-05-14T14:39:05.977Z,4.25
2023-05-14T14:41:32.637Z,3.65
2023-05-14T14:43:59.255Z,4.30
2023-05-14T14:46:26.080Z,3.70
2023-05-14T14:48:52.872Z,3.92
2023-05-14T14:51:19.627Z,3.70
2023-05-14T14:53:46.292Z,3.63
2023-05-14T14:56:12.893Z,3.78
2023-05-14T14:58:39.622Z,3.53
2023-05-14T15:01:06.341Z,3.88
2023-05-14T15:03:33.129Z,3.80
2023-05-14T15:06:00.028Z,3.92
2023-05-14T15:08:28.782Z,3.63
2023-05-14T15:10:59.378Z,3.75
2023-05-14T15:13:27.182Z,3.20
2023-05-14T15:15:53.954Z,2.47
2023-05-14T15:18:23.842Z,3.50
2023-05-14T15:20:50.824Z,2.78
2023-05-14T15:23:17.752Z,2.92
2023-05-14T15:25:44.926Z,3.20
2023-05-14T15:28:11.728Z,2.90
2023-05-14T15:30:38.618Z,3.00
2023-05-14T15:33:09.884Z,2.55
2023-05-14T15:35:36.865Z,2.75
2023-05-14T15:38:03.914Z,2.70
2023-05-14T15:40:30.930Z,2.83
2023-05-14T15:42:57.571Z,2.88
2023-05-14T15:45:29.639Z,2.88
2023-05-14T15:47:56.690Z,2.78
2023-05-14T15:50:23.673Z,3.00
2023-05-14T15:52:51.200Z,3.58
2023-05-14T15:55:21.243Z,3.00
2023-05-14T15:57:50.908Z,2.83
2023-05-14T16:00:18.202Z,2.90
2023-05-14T16:02:45.141Z,3.10
2023-05-14T16:05:13.959Z,2.72
2023-05-14T16:07:41.405Z,3.05
2023-05-14T16:10:22.188Z,3.10
2023-05-14T16:12:49.829Z,2.90
2023-05-14T16:15:24.326Z,3.15
2023-05-14T16:17:54.143Z,2.53
2023-05-14T16:20:24.056Z,3.28
2023-05-14T16:22:54.730Z,2.55
2023-05-14T16:25:25.998Z,2.63
2023-05-14T16:27:55.273Z,3.28
2023-05-14T16:30:25.050Z,2.67
2023-05-14T16:32:52.102Z,3.17
2023-05-14T16:35:19.078Z,2.83
2023-05-14T16:37:46.085Z,3.17
2023-05-14T16:40:16.719Z,2.85
2023-05-14T16:42:47.779Z,3.17
2023-05-14T16:45:19.065Z,3.10
2023-05-14T16:47:46.346Z,3.20
2023-05-14T16:50:15.635Z,3.10
2023-05-14T16:52:45.109Z,3.30
2023-05-14T16:55:14.909Z,3.10
2023-05-14T16:57:46.006Z,3.05
2023-05-14T17:00:13.789Z,2.50
2023-05-14T17:02:54.679Z,2.65
2023-05-14T17:05:22.107Z,2.77
2023-05-14T17:07:50.433Z,2.58
2023-05-14T17:10:20.540Z,2.75
2023-05-14T17:12:50.453Z,3.15
2023-05-14T17:15:22.529Z,2.97
2023-05-14T17:17:54.568Z,3.15
2023-05-14T17:20:21.962Z,3.03
2023-05-14T17:22:50.643Z,2.80
2023-05-14T17:25:20.790Z,2.83
2023-05-14T17:27:47.456Z,2.85
2023-05-14T17:30:14.261Z,2.63
2023-05-14T17:32:47.468Z,2.85
2023-05-14T17:35:16.436Z,3.08
2023-05-14T17:37:43.690Z,3.20
2023-05-14T17:40:11.221Z,3.60
2023-05-14T17:42:38.095Z,3.13
2023-05-14T17:45:07.727Z,2.92
2023-05-14T17:47:38.460Z,2.90
2023-05-14T17:50:11.799Z,3.13
2023-05-14T17:52:50.679Z,2.95
2023-05-14T17:55:19.528Z,2.80
2023-05-14T17:57:46.759Z,3.17
2023-05-14T18:00:13.749Z,2.95
2023-05-14T18:02:41.700Z,2.85
2023-05-14T18:05:08.900Z,2.97
2023-05-14T18:07:35.727Z,2.88
2023-05-14T18:10:03.040Z,3.20
2023-05-14T18:12:29.810Z,3.15
2023-05-14T18:14:56.541Z,3.05
2023-05-14T18:17:23.601Z,2.97
2023-05-14T18:19:50.685Z,3.25
2023-05-14T18:22:17.294Z,3.50
2023-05-14T18:24:44.523Z,3.40
2023-05-14T18:27:11.613Z,3.53
2023-05-14T18:29:38.367Z,3.88
2023-05-14T18:32:05.602Z,3.53
2023-05-14T18:34:32.387Z,3.45
2023-05-14T18:36:59.168Z,3.63
2023-05-14T18:39:26.402Z,3.75
2023-05-14T18:41:53.321Z,3.75
2023-05-14T18:44:20.428Z,3.75
2023-05-14T18:46:47.356Z,3.90
2023-05-14T18:49:14.197Z,3.90
2023-05-14T18:51:40.821Z,4.10
2023-05-14T18:54:07.556Z,3.35
2023-05-14T18:56:37.047Z,3.33
2023-05-14T18:59:04.504Z,3.55
2023-05-14T19:01:31.519Z,4.25
2023-05-14T19:03:58.378Z,4.18
2023-05-14T19:06:25.164Z,4.22
2023-05-14T19:08:52.146Z,4.25
2023-05-14T19:11:18.818Z,3.88
2023-05-14T19:13:46.863Z,3.78
2023-05-14T19:16:14.139Z,3.97
2023-05-14T19:18:41.248Z,3.72
2023-05-14T19:21:08.126Z,3.70
2023-05-14T19:23:34.855Z,3.95
2023-05-14T19:26:01.711Z,4.10
2023-05-14T19:28:28.405Z,4.45
2023-05-14T19:30:57.202Z,3.38
2023-05-14T19:33:24.906Z,3.88
2023-05-14T19:35:52.099Z,3.72
2023-05-14T19:38:19.881Z,4.30
2023-05-14T19:40:46.494Z,4.07
2023-05-14T19:43:13.150Z,4.45
2023-05-14T19:45:40.147Z,4.88
2023-05-14T19:48:06.897Z,4.85
2023-05-14T19:50:34.261Z,4.70
2023-05-14T19:53:01.197Z,5.30
2023-05-14T19:55:28.406Z,4.85
2023-05-14T19:57:55.116Z,5.07
2023-05-14T20:00:22.895Z,5.57
2023-05-14T20:02:49.873Z,4.68
2023-05-14T20:05:17.216Z,5.65
2023-05-14T20:07:44.850Z,4.93
2023-05-14T20:10:11.437Z,5.05
2023-05-14T20:12:38.205Z,5.57
2023-05-14T20:15:05.247Z,4.90
2023-05-14T20:17:32.011Z,5.18
2023-05-14T20:19:58.741Z,5.28
2023-05-14T20:22:25.770Z,5.50
2023-05-14T20:24:52.880Z,5.28
2023-05-14T20:27:19.558Z,4.90
2023-05-14T20:29:47.013Z,5.13
2023-05-14T20:32:15.607Z,5.50
2023-05-14T20:34:42.249Z,5.45
2023-05-14T20:37:09.437Z,5.57
2023-05-14T20:39:36.376Z,5.22
2023-05-14T20:42:02.997Z,5.63
2023-05-14T20:44:29.631Z,5.53
2023-05-14T20:46:56.298Z,5.10
2023-05-14T20:49:22.884Z,5.38
2023-05-14T20:51:49.748Z,5.47
2023-05-14T20:54:16.509Z,5.72
2023-05-14T20:56:43.289Z,4.97
2023-05-14T20:59:09.894Z,5.18
2023-05-14T21:01:36.597Z,5.30
2023-05-14T21:04:03.473Z,6.57
2023-05-14T21:06:30.315Z,5.57
2023-05-14T21:08:56.908Z,5.22
2023-05-14T21:11:23.979Z,5.90
2023-05-14T21:13:51.135Z,5.07
2023-05-14T21:16:17.889Z,5.97
2023-05-14T21:18:44.732Z,5.95
2023-05-14T21:21:11.368Z,6.00
2023-05-14T21:23:37.980Z,6.38
2023-05-14T21:26:06.800Z,6.18
2023-05-14T21:28:33.408Z,5.78
2023-05-14T21:31:00.055Z,6.18
2023-05-14T21:33:26.685Z,6.00
2023-05-14T21:35:53.248Z,6.10
2023-05-14T21:38:20.335Z,6.15
2023-05-14T21:40:46.937Z,6.72
2023-05-14T21:43:13.637Z,6.60
2023-05-14T21:45:40.302Z,6.32
2023-05-14T21:48:07.020Z,6.22
2023-05-14T21:50:33.691Z,7.32
2023-05-14T21:53:00.454Z,6.40
2023-05-14T21:55:28.162Z,6.18
2023-05-14T21:57:54.944Z,6.60
2023-05-14T22:00:25.177Z,7.20
2023-05-14T22:02:55.366Z,6.25
2023-05-14T22:05:22.516Z,6.38
2023-05-14T22:07:49.395Z,7.10
2023-05-14T22:10:16.596Z,6.43
2023-05-14T22:12:44.664Z,6.85
2023-05-14T22:15:12.140Z,6.78
2023-05-14T22:17:39.033Z,6.75
2023-05-14T22:20:07.130Z,6.70
2023-05-14T22:22:34.365Z,7.10
2023-05-14T22:25:00.992Z,6.32
2023-05-14T22:27:27.633Z,7.38
2023-05-14T22:29:55.220Z,7.22
2023-05-14T22:32:21.902Z,7.38
2023-05-14T22:34:48.558Z,7.47
2023-05-14T22:37:15.679Z,7.60
2023-05-14T22:39:42.759Z,7.32
2023-05-14T22:42:09.493Z,7.57
2023-05-14T22:44:37.066Z,7.68
2023-05-14T22:47:07.354Z,7.70
2023-05-14T22:49:34.059Z,7.70
2023-05-14T22:52:01.322Z,7.90
2023-05-14T22:54:27.973Z,7.88
2023-05-14T22:56:54.619Z,7.95
2023-05-14T22:59:23.425Z,7.45
2023-05-14T23:01:50.465Z,7.97
2023-05-14T23:04:17.227Z,8.23
2023-05-14T23:06:43.937Z,8.30
2023-05-14T23:09:10.685Z,7.47
2023-05-14T23:11:37.432Z,7.70
2023-05-14T23:14:04.022Z,8.63
2023-05-14T23:16:31.868Z,8.02
2023-05-14T23:18:58.601Z,8.13
2023-05-14T23:21:25.559Z,7.57
2023-05-14T23:23:52.131Z,7.57
2023-05-14T23:26:18.747Z,7.47
2023-05-14T23:28:47.279Z,8.60
2023-05-14T23:31:14.044Z,8.52
2023-05-14T23:33:40.776Z,8.02
2023-05-14T23:36:07.985Z,8.35
2023-05-14T23:38:34.720Z,8.18
2023-05-14T23:41:01.483Z,8.60
2023-05-14T23:43:28.162Z,8.57
2023-05-14T23:45:54.817Z,8.38
2023-05-14T23:48:21.475Z,8.20
2023-05-14T23:50:48.041Z,8.65
2023-05-14T23:53:14.723Z,7.93
2023-05-14T23:55:41.330Z,8.10
2023-05-14T23:58:07.931Z,7.88
